sensor_id;sensor_type;location;lat;lon;timestamp;P1;durP1;ratioP1;P2;durP2;ratioP2
85314;SDS011;75718;50.886;11.656;2024-01-30T00:00:32;6.43;;;3.75;;
85314;SDS011;75718;50.886;11.656;2024-01-30T00:02:57;6.18;;;3.05;;
85314;SDS011;75718;50.886;11.656;2024-01-30T00:05:22;5.73;;;3.17;;
85314;SDS011;75718;50.886;11.656;2024-01-30T00:07:47;5.93;;;3.13;;
85314;SDS011;75718;50.886;11.656;2024-01-30T00:10:13;6.20;;;2.83;;
85314;SDS011;75718;50.886;11.656;2024-01-30T00:12:38;5.93;;;3.08;;
85314;SDS011;75718;50.886;11.656;2024-01-30T00:15:03;4.70;;;2.97;;
85314;SDS011;75718;50.886;11.656;2024-01-30T00:17:30;4.38;;;2.70;;
85314;SDS011;75718;50.886;11.656;2024-01-30T00:19:56;5.20;;;2.88;;
85314;SDS011;75718;50.886;11.656;2024-01-30T00:22:21;4.65;;;3.00;;
85314;SDS011;75718;50.886;11.656;2024-01-30T00:24:46;5.33;;;2.93;;
85314;SDS011;75718;50.886;11.656;2024-01-30T00:27:11;5.53;;;3.00;;
85314;SDS011;75718;50.886;11.656;2024-01-30T00:29:36;3.70;;;2.67;;
85314;SDS011;75718;50.886;11.656;2024-01-30T00:32:02;5.47;;;3.27;;
85314;SDS011;75718;50.886;11.656;2024-01-30T00:34:27;5.20;;;2.70;;
85314;SDS011;75718;50.886;11.656;2024-01-30T00:36:52;6.33;;;2.93;;
85314;SDS011;75718;50.886;11.656;2024-01-30T00:39:18;4.05;;;2.72;;
85314;SDS011;75718;50.886;11.656;2024-01-30T00:41:44;6.45;;;3.20;;
85314;SDS011;75718;50.886;11.656;2024-01-30T00:44:10;4.13;;;2.92;;
85314;SDS011;75718;50.886;11.656;2024-01-30T00:46:35;3.72;;;2.55;;
85314;SDS011;75718;50.886;11.656;2024-01-30T00:49:00;4.57;;;3.00;;
85314;SDS011;75718;50.886;11.656;2024-01-30T00:51:26;5.50;;;3.57;;
85314;SDS011;75718;50.886;11.656;2024-01-30T00:53:51;5.30;;;2.97;;
85314;SDS011;75718;50.886;11.656;2024-01-30T00:56:16;4.70;;;3.25;;
85314;SDS011;75718;50.886;11.656;2024-01-30T00:58:43;8.77;;;4.20;;
85314;SDS011;75718;50.886;11.656;2024-01-30T01:01:08;6.85;;;3.00;;
85314;SDS011;75718;50.886;11.656;2024-01-30T01:03:34;8.13;;;3.28;;
85314;SDS011;75718;50.886;11.656;2024-01-30T01:05:59;8.20;;;4.00;;
85314;SDS011;75718;50.886;11.656;2024-01-30T01:08:25;5.40;;;3.00;;
85314;SDS011;75718;50.886;11.656;2024-01-30T01:10:50;3.58;;;2.88;;
85314;SDS011;75718;50.886;11.656;2024-01-30T01:13:15;3.40;;;2.90;;
85314;SDS011;75718;50.886;11.656;2024-01-30T01:15:40;5.60;;;3.20;;
85314;SDS011;75718;50.886;11.656;2024-01-30T01:18:06;8.17;;;3.33;;
85314;SDS011;75718;50.886;11.656;2024-01-30T01:20:31;4.70;;;3.03;;
85314;SDS011;75718;50.886;11.656;2024-01-30T01:22:57;4.47;;;2.78;;
85314;SDS011;75718;50.886;11.656;2024-01-30T01:25:22;3.50;;;2.80;;
85314;SDS011;75718;50.886;11.656;2024-01-30T01:27:47;5.63;;;3.40;;
85314;SDS011;75718;50.886;11.656;2024-01-30T01:30:16;3.55;;;2.60;;
85314;SDS011;75718;50.886;11.656;2024-01-30T01:32:46;8.38;;;3.30;;
85314;SDS011;75718;50.886;11.656;2024-01-30T01:35:24;7.25;;;3.05;;
85314;SDS011;75718;50.886;11.656;2024-01-30T01:37:50;5.63;;;3.10;;
85314;SDS011;75718;50.886;11.656;2024-01-30T01:40:24;4.47;;;3.10;;
85314;SDS011;75718;50.886;11.656;2024-01-30T01:42:50;7.05;;;3.03;;
85314;SDS011;75718;50.886;11.656;2024-01-30T01:45:17;4.07;;;2.80;;
85314;SDS011;75718;50.886;11.656;2024-01-30T01:47:42;5.95;;;3.25;;
85314;SDS011;75718;50.886;11.656;2024-01-30T01:50:10;4.05;;;2.40;;
85314;SDS011;75718;50.886;11.656;2024-01-30T01:52:37;4.25;;;2.72;;
85314;SDS011;75718;50.886;11.656;2024-01-30T01:55:03;5.18;;;3.05;;
85314;SDS011;75718;50.886;11.656;2024-01-30T01:57:29;7.47;;;3.50;;
85314;SDS011;75718;50.886;11.656;2024-01-30T01:59:54;4.73;;;3.33;;
85314;SDS011;75718;50.886;11.656;2024-01-30T02:02:20;4.88;;;3.10;;
85314;SDS011;75718;50.886;11.656;2024-01-30T02:04:46;7.07;;;3.05;;
85314;SDS011;75718;50.886;11.656;2024-01-30T02:07:11;4.82;;;2.97;;
85314;SDS011;75718;50.886;11.656;2024-01-30T02:09:36;4.23;;;3.00;;
85314;SDS011;75718;50.886;11.656;2024-01-30T02:12:01;6.03;;;2.90;;
85314;SDS011;75718;50.886;11.656;2024-01-30T02:14:27;5.78;;;3.35;;
85314;SDS011;75718;50.886;11.656;2024-01-30T02:16:52;5.85;;;2.97;;
85314;SDS011;75718;50.886;11.656;2024-01-30T02:19:17;4.57;;;2.73;;
85314;SDS011;75718;50.886;11.656;2024-01-30T02:21:43;4.35;;;3.17;;
85314;SDS011;75718;50.886;11.656;2024-01-30T02:24:09;5.82;;;2.83;;
85314;SDS011;75718;50.886;11.656;2024-01-30T02:26:34;4.33;;;2.80;;
85314;SDS011;75718;50.886;11.656;2024-01-30T02:29:00;6.73;;;2.83;;
85314;SDS011;75718;50.886;11.656;2024-01-30T02:31:25;5.53;;;3.03;;
85314;SDS011;75718;50.886;11.656;2024-01-30T02:33:50;4.40;;;3.03;;
85314;SDS011;75718;50.886;11.656;2024-01-30T02:36:16;5.20;;;3.00;;
85314;SDS011;75718;50.886;11.656;2024-01-30T02:38:41;5.22;;;3.30;;
85314;SDS011;75718;50.886;11.656;2024-01-30T02:41:06;4.97;;;3.30;;
85314;SDS011;75718;50.886;11.656;2024-01-30T02:43:32;6.27;;;3.07;;
85314;SDS011;75718;50.886;11.656;2024-01-30T02:45:57;5.20;;;3.13;;
85314;SDS011;75718;50.886;11.656;2024-01-30T02:48:24;6.28;;;2.92;;
85314;SDS011;75718;50.886;11.656;2024-01-30T02:50:50;6.33;;;2.93;;
85314;SDS011;75718;50.886;11.656;2024-01-30T02:53:15;7.97;;;2.70;;
85314;SDS011;75718;50.886;11.656;2024-01-30T02:55:40;6.17;;;3.40;;
85314;SDS011;75718;50.886;11.656;2024-01-30T02:58:05;6.37;;;3.17;;
85314;SDS011;75718;50.886;11.656;2024-01-30T03:00:31;6.13;;;3.03;;
85314;SDS011;75718;50.886;11.656;2024-01-30T03:02:57;5.63;;;3.60;;
85314;SDS011;75718;50.886;11.656;2024-01-30T03:05:23;6.05;;;3.08;;
85314;SDS011;75718;50.886;11.656;2024-01-30T03:07:48;6.17;;;3.03;;
85314;SDS011;75718;50.886;11.656;2024-01-30T03:10:14;5.32;;;3.30;;
85314;SDS011;75718;50.886;11.656;2024-01-30T03:12:39;5.60;;;2.77;;
85314;SDS011;75718;50.886;11.656;2024-01-30T03:15:04;4.83;;;2.83;;
85314;SDS011;75718;50.886;11.656;2024-01-30T03:17:30;6.60;;;3.15;;
85314;SDS011;75718;50.886;11.656;2024-01-30T03:19:55;6.07;;;3.70;;
85314;SDS011;75718;50.886;11.656;2024-01-30T03:22:20;6.65;;;3.35;;
85314;SDS011;75718;50.886;11.656;2024-01-30T03:24:46;5.30;;;2.83;;
85314;SDS011;75718;50.886;11.656;2024-01-30T03:27:11;6.60;;;3.50;;
85314;SDS011;75718;50.886;11.656;2024-01-30T03:29:36;4.82;;;3.20;;
85314;SDS011;75718;50.886;11.656;2024-01-30T03:32:02;5.70;;;2.80;;
85314;SDS011;75718;50.886;11.656;2024-01-30T03:34:28;5.18;;;3.38;;
85314;SDS011;75718;50.886;11.656;2024-01-30T03:36:54;5.13;;;2.47;;
85314;SDS011;75718;50.886;11.656;2024-01-30T03:39:19;6.47;;;3.50;;
85314;SDS011;75718;50.886;11.656;2024-01-30T03:41:44;5.93;;;2.80;;
85314;SDS011;75718;50.886;11.656;2024-01-30T03:44:10;3.10;;;2.40;;
85314;SDS011;75718;50.886;11.656;2024-01-30T03:46:35;3.63;;;2.80;;
85314;SDS011;75718;50.886;11.656;2024-01-30T03:49:00;5.83;;;2.87;;
85314;SDS011;75718;50.886;11.656;2024-01-30T03:51:26;5.10;;;2.77;;
85314;SDS011;75718;50.886;11.656;2024-01-30T03:53:51;6.10;;;3.00;;
85314;SDS011;75718;50.886;11.656;2024-01-30T03:56:16;4.65;;;2.67;;
85314;SDS011;75718;50.886;11.656;2024-01-30T03:58:41;5.87;;;3.47;;
85314;SDS011;75718;50.886;11.656;2024-01-30T04:01:07;5.43;;;2.63;;
85314;SDS011;75718;50.886;11.656;2024-01-30T04:03:32;4.10;;;2.47;;
85314;SDS011;75718;50.886;11.656;2024-01-30T04:05:58;5.37;;;2.80;;
85314;SDS011;75718;50.886;11.656;2024-01-30T04:08:23;5.73;;;3.07;;
85314;SDS011;75718;50.886;11.656;2024-01-30T04:10:48;5.17;;;2.87;;
85314;SDS011;75718;50.886;11.656;2024-01-30T04:13:13;3.43;;;2.30;;
85314;SDS011;75718;50.886;11.656;2024-01-30T04:15:39;3.97;;;2.63;;
85314;SDS011;75718;50.886;11.656;2024-01-30T04:18:04;4.53;;;2.78;;
85314;SDS011;75718;50.886;11.656;2024-01-30T04:20:30;4.25;;;2.40;;
85314;SDS011;75718;50.886;11.656;2024-01-30T04:22:55;4.73;;;2.43;;
85314;SDS011;75718;50.886;11.656;2024-01-30T04:25:20;2.77;;;2.10;;
85314;SDS011;75718;50.886;11.656;2024-01-30T04:27:46;3.40;;;2.63;;
85314;SDS011;75718;50.886;11.656;2024-01-30T04:30:11;5.57;;;3.20;;
85314;SDS011;75718;50.886;11.656;2024-01-30T04:32:36;5.47;;;2.70;;
85314;SDS011;75718;50.886;11.656;2024-01-30T04:35:02;3.63;;;2.42;;
85314;SDS011;75718;50.886;11.656;2024-01-30T04:37:28;6.53;;;2.78;;
85314;SDS011;75718;50.886;11.656;2024-01-30T04:39:53;4.23;;;2.73;;
85314;SDS011;75718;50.886;11.656;2024-01-30T04:42:18;5.60;;;3.08;;
85314;SDS011;75718;50.886;11.656;2024-01-30T04:44:44;4.63;;;2.92;;
85314;SDS011;75718;50.886;11.656;2024-01-30T04:47:09;5.27;;;2.70;;
85314;SDS011;75718;50.886;11.656;2024-01-30T04:49:36;5.13;;;2.80;;
85314;SDS011;75718;50.886;11.656;2024-01-30T04:52:04;6.28;;;2.90;;
85314;SDS011;75718;50.886;11.656;2024-01-30T04:54:29;5.90;;;3.30;;
85314;SDS011;75718;50.886;11.656;2024-01-30T04:56:54;5.93;;;3.45;;
85314;SDS011;75718;50.886;11.656;2024-01-30T04:59:20;5.20;;;2.77;;
85314;SDS011;75718;50.886;11.656;2024-01-30T05:01:45;5.28;;;2.88;;
85314;SDS011;75718;50.886;11.656;2024-01-30T05:04:11;6.03;;;3.00;;
85314;SDS011;75718;50.886;11.656;2024-01-30T05:06:36;5.43;;;2.75;;
85314;SDS011;75718;50.886;11.656;2024-01-30T05:09:01;4.40;;;2.60;;
85314;SDS011;75718;50.886;11.656;2024-01-30T05:11:27;4.80;;;2.80;;
85314;SDS011;75718;50.886;11.656;2024-01-30T05:13:52;3.90;;;2.60;;
85314;SDS011;75718;50.886;11.656;2024-01-30T05:16:17;5.50;;;2.60;;
85314;SDS011;75718;50.886;11.656;2024-01-30T05:18:43;3.85;;;2.55;;
85314;SDS011;75718;50.886;11.656;2024-01-30T05:21:08;4.70;;;2.88;;
85314;SDS011;75718;50.886;11.656;2024-01-30T05:23:34;4.78;;;2.63;;
85314;SDS011;75718;50.886;11.656;2024-01-30T05:25:59;5.07;;;3.07;;
85314;SDS011;75718;50.886;11.656;2024-01-30T05:28:25;4.00;;;2.50;;
85314;SDS011;75718;50.886;11.656;2024-01-30T05:30:51;4.82;;;2.67;;
85314;SDS011;75718;50.886;11.656;2024-01-30T05:33:16;5.40;;;2.85;;
85314;SDS011;75718;50.886;11.656;2024-01-30T05:35:41;4.70;;;2.57;;
85314;SDS011;75718;50.886;11.656;2024-01-30T05:38:07;4.63;;;2.53;;
85314;SDS011;75718;50.886;11.656;2024-01-30T05:40:32;4.70;;;2.93;;
85314;SDS011;75718;50.886;11.656;2024-01-30T05:42:57;5.63;;;3.33;;
85314;SDS011;75718;50.886;11.656;2024-01-30T05:45:27;7.03;;;3.15;;
85314;SDS011;75718;50.886;11.656;2024-01-30T05:47:53;6.20;;;3.07;;
85314;SDS011;75718;50.886;11.656;2024-01-30T05:50:19;3.05;;;2.58;;
85314;SDS011;75718;50.886;11.656;2024-01-30T05:52:44;5.10;;;2.78;;
85314;SDS011;75718;50.886;11.656;2024-01-30T05:55:09;7.97;;;2.53;;
85314;SDS011;75718;50.886;11.656;2024-01-30T05:57:36;6.30;;;3.15;;
85314;SDS011;75718;50.886;11.656;2024-01-30T06:00:02;6.40;;;2.95;;
85314;SDS011;75718;50.886;11.656;2024-01-30T06:02:28;6.68;;;3.17;;
85314;SDS011;75718;50.886;11.656;2024-01-30T06:04:53;3.60;;;2.67;;
85314;SDS011;75718;50.886;11.656;2024-01-30T06:07:19;3.90;;;2.50;;
85314;SDS011;75718;50.886;11.656;2024-01-30T06:09:44;4.38;;;2.65;;
85314;SDS011;75718;50.886;11.656;2024-01-30T06:12:11;5.68;;;2.88;;
85314;SDS011;75718;50.886;11.656;2024-01-30T06:14:37;5.25;;;2.83;;
85314;SDS011;75718;50.886;11.656;2024-01-30T06:17:02;5.33;;;2.57;;
85314;SDS011;75718;50.886;11.656;2024-01-30T06:19:28;4.20;;;2.60;;
85314;SDS011;75718;50.886;11.656;2024-01-30T06:21:53;5.30;;;3.23;;
85314;SDS011;75718;50.886;11.656;2024-01-30T06:24:18;4.03;;;3.03;;
85314;SDS011;75718;50.886;11.656;2024-01-30T06:26:43;6.20;;;3.53;;
85314;SDS011;75718;50.886;11.656;2024-01-30T06:29:09;5.47;;;2.97;;
85314;SDS011;75718;50.886;11.656;2024-01-30T06:31:39;4.43;;;2.78;;
85314;SDS011;75718;50.886;11.656;2024-01-30T06:34:08;7.80;;;4.13;;
85314;SDS011;75718;50.886;11.656;2024-01-30T06:36:33;7.53;;;3.58;;
85314;SDS011;75718;50.886;11.656;2024-01-30T06:38:59;7.00;;;2.88;;
85314;SDS011;75718;50.886;11.656;2024-01-30T06:41:24;5.45;;;3.33;;
85314;SDS011;75718;50.886;11.656;2024-01-30T06:43:50;5.03;;;3.33;;
85314;SDS011;75718;50.886;11.656;2024-01-30T06:46:15;5.88;;;3.35;;
85314;SDS011;75718;50.886;11.656;2024-01-30T06:48:40;6.00;;;3.30;;
85314;SDS011;75718;50.886;11.656;2024-01-30T06:51:06;4.03;;;2.90;;
85314;SDS011;75718;50.886;11.656;2024-01-30T06:53:31;7.35;;;3.30;;
85314;SDS011;75718;50.886;11.656;2024-01-30T06:55:57;5.15;;;3.72;;
85314;SDS011;75718;50.886;11.656;2024-01-30T06:58:22;4.93;;;2.90;;
85314;SDS011;75718;50.886;11.656;2024-01-30T07:00:47;5.30;;;2.87;;
85314;SDS011;75718;50.886;11.656;2024-01-30T07:03:12;4.72;;;3.03;;
85314;SDS011;75718;50.886;11.656;2024-01-30T07:05:38;5.47;;;2.90;;
85314;SDS011;75718;50.886;11.656;2024-01-30T07:08:03;5.70;;;2.90;;
85314;SDS011;75718;50.886;11.656;2024-01-30T07:10:29;5.30;;;3.53;;
85314;SDS011;75718;50.886;11.656;2024-01-30T07:12:54;6.77;;;3.23;;
85314;SDS011;75718;50.886;11.656;2024-01-30T07:15:19;6.17;;;3.30;;
85314;SDS011;75718;50.886;11.656;2024-01-30T07:17:45;3.67;;;2.95;;
85314;SDS011;75718;50.886;11.656;2024-01-30T07:20:11;5.07;;;3.22;;
85314;SDS011;75718;50.886;11.656;2024-01-30T07:22:36;6.18;;;3.65;;
85314;SDS011;75718;50.886;11.656;2024-01-30T07:25:01;4.77;;;2.90;;
85314;SDS011;75718;50.886;11.656;2024-01-30T07:27:27;6.28;;;3.67;;
85314;SDS011;75718;50.886;11.656;2024-01-30T07:29:52;6.83;;;3.43;;
85314;SDS011;75718;50.886;11.656;2024-01-30T07:32:17;3.57;;;2.70;;
85314;SDS011;75718;50.886;11.656;2024-01-30T07:34:43;4.60;;;3.60;;
85314;SDS011;75718;50.886;11.656;2024-01-30T07:37:09;7.27;;;3.80;;
85314;SDS011;75718;50.886;11.656;2024-01-30T07:39:35;5.97;;;3.60;;
85314;SDS011;75718;50.886;11.656;2024-01-30T07:42:00;8.38;;;3.45;;
85314;SDS011;75718;50.886;11.656;2024-01-30T07:44:26;5.37;;;3.57;;
85314;SDS011;75718;50.886;11.656;2024-01-30T07:46:51;6.77;;;3.40;;
85314;SDS011;75718;50.886;11.656;2024-01-30T07:49:16;8.63;;;4.03;;
85314;SDS011;75718;50.886;11.656;2024-01-30T07:51:42;6.95;;;4.68;;
85314;SDS011;75718;50.886;11.656;2024-01-30T07:54:08;6.32;;;3.60;;
85314;SDS011;75718;50.886;11.656;2024-01-30T07:56:33;6.90;;;3.43;;
85314;SDS011;75718;50.886;11.656;2024-01-30T07:58:58;6.13;;;3.60;;
85314;SDS011;75718;50.886;11.656;2024-01-30T08:01:23;5.93;;;3.70;;
85314;SDS011;75718;50.886;11.656;2024-01-30T08:03:49;3.87;;;3.00;;
85314;SDS011;75718;50.886;11.656;2024-01-30T08:06:14;4.90;;;3.53;;
85314;SDS011;75718;50.886;11.656;2024-01-30T08:08:39;6.30;;;3.72;;
85314;SDS011;75718;50.886;11.656;2024-01-30T08:11:04;7.33;;;3.40;;
85314;SDS011;75718;50.886;11.656;2024-01-30T08:13:30;6.15;;;3.40;;
85314;SDS011;75718;50.886;11.656;2024-01-30T08:15:55;7.30;;;3.50;;
85314;SDS011;75718;50.886;11.656;2024-01-30T08:18:21;5.10;;;3.40;;
85314;SDS011;75718;50.886;11.656;2024-01-30T08:20:46;6.72;;;3.75;;
85314;SDS011;75718;50.886;11.656;2024-01-30T08:23:11;7.03;;;3.90;;
85314;SDS011;75718;50.886;11.656;2024-01-30T08:25:36;6.95;;;3.30;;
85314;SDS011;75718;50.886;11.656;2024-01-30T08:28:02;5.03;;;3.53;;
85314;SDS011;75718;50.886;11.656;2024-01-30T08:30:27;4.70;;;3.83;;
85314;SDS011;75718;50.886;11.656;2024-01-30T08:32:52;6.27;;;3.53;;
85314;SDS011;75718;50.886;11.656;2024-01-30T08:35:17;4.80;;;3.33;;
85314;SDS011;75718;50.886;11.656;2024-01-30T08:37:43;5.20;;;3.73;;
85314;SDS011;75718;50.886;11.656;2024-01-30T08:40:08;5.75;;;3.47;;
85314;SDS011;75718;50.886;11.656;2024-01-30T08:42:34;5.78;;;3.47;;
85314;SDS011;75718;50.886;11.656;2024-01-30T08:44:59;5.95;;;3.95;;
85314;SDS011;75718;50.886;11.656;2024-01-30T08:47:24;5.40;;;3.43;;
85314;SDS011;75718;50.886;11.656;2024-01-30T08:49:50;5.70;;;4.32;;
85314;SDS011;75718;50.886;11.656;2024-01-30T08:52:16;5.30;;;3.50;;
85314;SDS011;75718;50.886;11.656;2024-01-30T08:54:41;5.65;;;3.50;;
85314;SDS011;75718;50.886;11.656;2024-01-30T08:57:06;4.97;;;3.50;;
85314;SDS011;75718;50.886;11.656;2024-01-30T08:59:31;7.10;;;4.30;;
85314;SDS011;75718;50.886;11.656;2024-01-30T09:01:57;5.73;;;3.70;;
85314;SDS011;75718;50.886;11.656;2024-01-30T09:04:24;6.40;;;3.75;;
85314;SDS011;75718;50.886;11.656;2024-01-30T09:06:49;9.20;;;4.72;;
85314;SDS011;75718;50.886;11.656;2024-01-30T09:09:15;7.53;;;3.63;;
85314;SDS011;75718;50.886;11.656;2024-01-30T09:11:40;6.50;;;3.93;;
85314;SDS011;75718;50.886;11.656;2024-01-30T09:14:05;9.05;;;5.00;;
85314;SDS011;75718;50.886;11.656;2024-01-30T09:16:31;7.82;;;4.72;;
85314;SDS011;75718;50.886;11.656;2024-01-30T09:18:56;6.20;;;4.23;;
85314;SDS011;75718;50.886;11.656;2024-01-30T09:21:21;5.93;;;3.93;;
85314;SDS011;75718;50.886;11.656;2024-01-30T09:23:47;6.10;;;3.80;;
85314;SDS011;75718;50.886;11.656;2024-01-30T09:26:12;7.13;;;4.13;;
85314;SDS011;75718;50.886;11.656;2024-01-30T09:28:37;8.37;;;4.50;;
85314;SDS011;75718;50.886;11.656;2024-01-30T09:31:03;5.65;;;3.90;;
85314;SDS011;75718;50.886;11.656;2024-01-30T09:33:29;7.05;;;4.28;;
85314;SDS011;75718;50.886;11.656;2024-01-30T09:35:54;6.30;;;3.47;;
85314;SDS011;75718;50.886;11.656;2024-01-30T09:38:19;5.17;;;3.60;;
85314;SDS011;75718;50.886;11.656;2024-01-30T09:40:44;6.05;;;4.15;;
85314;SDS011;75718;50.886;11.656;2024-01-30T09:43:18;6.22;;;4.00;;
85314;SDS011;75718;50.886;11.656;2024-01-30T09:45:47;6.47;;;4.60;;
85314;SDS011;75718;50.886;11.656;2024-01-30T09:48:15;5.00;;;4.13;;
85314;SDS011;75718;50.886;11.656;2024-01-30T09:50:40;7.45;;;3.90;;
85314;SDS011;75718;50.886;11.656;2024-01-30T09:53:06;5.43;;;4.05;;
85314;SDS011;75718;50.886;11.656;2024-01-30T09:55:33;5.75;;;4.25;;
85314;SDS011;75718;50.886;11.656;2024-01-30T09:57:59;6.82;;;3.97;;
85314;SDS011;75718;50.886;11.656;2024-01-30T10:00:24;8.10;;;4.28;;
85314;SDS011;75718;50.886;11.656;2024-01-30T10:02:52;7.75;;;4.20;;
85314;SDS011;75718;50.886;11.656;2024-01-30T10:05:18;5.88;;;4.00;;
85314;SDS011;75718;50.886;11.656;2024-01-30T10:07:52;6.35;;;3.78;;
85314;SDS011;75718;50.886;11.656;2024-01-30T10:10:18;6.20;;;3.90;;
85314;SDS011;75718;50.886;11.656;2024-01-30T10:12:43;6.23;;;4.07;;
85314;SDS011;75718;50.886;11.656;2024-01-30T10:15:09;6.10;;;4.00;;
85314;SDS011;75718;50.886;11.656;2024-01-30T10:17:34;5.60;;;4.03;;
85314;SDS011;75718;50.886;11.656;2024-01-30T10:20:04;6.72;;;4.47;;
85314;SDS011;75718;50.886;11.656;2024-01-30T10:22:30;5.50;;;4.22;;
85314;SDS011;75718;50.886;11.656;2024-01-30T10:24:55;6.75;;;4.22;;
85314;SDS011;75718;50.886;11.656;2024-01-30T10:27:27;7.63;;;4.45;;
85314;SDS011;75718;50.886;11.656;2024-01-30T10:29:52;6.57;;;3.97;;
85314;SDS011;75718;50.886;11.656;2024-01-30T10:32:18;9.88;;;4.55;;
85314;SDS011;75718;50.886;11.656;2024-01-30T10:34:44;7.40;;;3.80;;
85314;SDS011;75718;50.886;11.656;2024-01-30T10:37:10;7.65;;;4.10;;
85314;SDS011;75718;50.886;11.656;2024-01-30T10:39:43;7.28;;;4.75;;
85314;SDS011;75718;50.886;11.656;2024-01-30T10:42:11;6.00;;;3.83;;
85314;SDS011;75718;50.886;11.656;2024-01-30T10:47:30;6.55;;;4.30;;
85314;SDS011;75718;50.886;11.656;2024-01-30T10:49:56;7.27;;;4.07;;
85314;SDS011;75718;50.886;11.656;2024-01-30T10:52:25;6.22;;;4.80;;
85314;SDS011;75718;50.886;11.656;2024-01-30T10:54:51;7.03;;;4.28;;
85314;SDS011;75718;50.886;11.656;2024-01-30T10:57:17;5.80;;;4.03;;
85314;SDS011;75718;50.886;11.656;2024-01-30T10:59:43;5.30;;;4.00;;
85314;SDS011;75718;50.886;11.656;2024-01-30T11:02:09;5.50;;;4.03;;
85314;SDS011;75718;50.886;11.656;2024-01-30T11:04:36;7.25;;;4.45;;
85314;SDS011;75718;50.886;11.656;2024-01-30T11:07:13;6.13;;;4.05;;
85314;SDS011;75718;50.886;11.656;2024-01-30T11:09:40;6.85;;;4.53;;
85314;SDS011;75718;50.886;11.656;2024-01-30T11:12:11;8.77;;;4.90;;
85314;SDS011;75718;50.886;11.656;2024-01-30T11:17:06;6.63;;;5.03;;
85314;SDS011;75718;50.886;11.656;2024-01-30T11:19:31;5.90;;;4.27;;
85314;SDS011;75718;50.886;11.656;2024-01-30T11:21:57;7.50;;;4.90;;
85314;SDS011;75718;50.886;11.656;2024-01-30T11:24:23;6.55;;;4.32;;
85314;SDS011;75718;50.886;11.656;2024-01-30T11:26:55;5.93;;;4.43;;
85314;SDS011;75718;50.886;11.656;2024-01-30T11:29:25;7.75;;;4.43;;
85314;SDS011;75718;50.886;11.656;2024-01-30T11:31:53;6.60;;;4.25;;
85314;SDS011;75718;50.886;11.656;2024-01-30T11:34:22;8.60;;;4.57;;
85314;SDS011;75718;50.886;11.656;2024-01-30T11:36:51;6.97;;;5.35;;
85314;SDS011;75718;50.886;11.656;2024-01-30T11:39:23;7.20;;;4.97;;
85314;SDS011;75718;50.886;11.656;2024-01-30T11:41:53;8.75;;;4.93;;
85314;SDS011;75718;50.886;11.656;2024-01-30T11:44:19;6.88;;;4.32;;
85314;SDS011;75718;50.886;11.656;2024-01-30T11:46:45;8.45;;;5.22;;
85314;SDS011;75718;50.886;11.656;2024-01-30T11:49:11;5.60;;;4.18;;
85314;SDS011;75718;50.886;11.656;2024-01-30T11:51:37;6.55;;;4.32;;
85314;SDS011;75718;50.886;11.656;2024-01-30T11:54:02;9.75;;;4.93;;
85314;SDS011;75718;50.886;11.656;2024-01-30T11:56:28;8.73;;;5.25;;
85314;SDS011;75718;50.886;11.656;2024-01-30T11:58:53;7.70;;;4.80;;
85314;SDS011;75718;50.886;11.656;2024-01-30T12:01:19;6.20;;;4.55;;
85314;SDS011;75718;50.886;11.656;2024-01-30T12:03:50;7.82;;;4.32;;
85314;SDS011;75718;50.886;11.656;2024-01-30T12:06:16;6.40;;;4.78;;
85314;SDS011;75718;50.886;11.656;2024-01-30T12:08:42;5.35;;;4.30;;
85314;SDS011;75718;50.886;11.656;2024-01-30T12:11:07;5.97;;;4.25;;
85314;SDS011;75718;50.886;11.656;2024-01-30T12:13:33;6.35;;;4.43;;
85314;SDS011;75718;50.886;11.656;2024-01-30T12:15:59;6.32;;;4.20;;
85314;SDS011;75718;50.886;11.656;2024-01-30T12:18:25;6.70;;;4.50;;
85314;SDS011;75718;50.886;11.656;2024-01-30T12:21:00;5.95;;;4.15;;
85314;SDS011;75718;50.886;11.656;2024-01-30T12:23:26;5.95;;;4.40;;
85314;SDS011;75718;50.886;11.656;2024-01-30T12:25:53;6.10;;;4.10;;
85314;SDS011;75718;50.886;11.656;2024-01-30T12:28:19;6.73;;;4.27;;
85314;SDS011;75718;50.886;11.656;2024-01-30T12:30:45;7.03;;;4.15;;
85314;SDS011;75718;50.886;11.656;2024-01-30T12:33:15;7.13;;;3.90;;
85314;SDS011;75718;50.886;11.656;2024-01-30T12:35:45;7.68;;;4.15;;
85314;SDS011;75718;50.886;11.656;2024-01-30T12:38:11;8.57;;;4.78;;
85314;SDS011;75718;50.886;11.656;2024-01-30T12:40:36;6.57;;;4.13;;
85314;SDS011;75718;50.886;11.656;2024-01-30T12:43:02;5.67;;;4.03;;
85314;SDS011;75718;50.886;11.656;2024-01-30T12:45:28;5.70;;;4.20;;
85314;SDS011;75718;50.886;11.656;2024-01-30T12:47:53;7.20;;;4.00;;
85314;SDS011;75718;50.886;11.656;2024-01-30T12:50:18;6.22;;;4.30;;
85314;SDS011;75718;50.886;11.656;2024-01-30T12:52:44;6.03;;;4.32;;
85314;SDS011;75718;50.886;11.656;2024-01-30T12:55:09;7.47;;;4.18;;
85314;SDS011;75718;50.886;11.656;2024-01-30T12:57:35;6.60;;;4.93;;
85314;SDS011;75718;50.886;11.656;2024-01-30T13:00:00;7.37;;;4.57;;
85314;SDS011;75718;50.886;11.656;2024-01-30T13:02:25;6.40;;;4.33;;
85314;SDS011;75718;50.886;11.656;2024-01-30T13:04:53;5.85;;;4.15;;
85314;SDS011;75718;50.886;11.656;2024-01-30T13:07:19;7.80;;;4.35;;
85314;SDS011;75718;50.886;11.656;2024-01-30T13:09:45;5.35;;;3.85;;
85314;SDS011;75718;50.886;11.656;2024-01-30T13:12:11;6.30;;;4.13;;
85314;SDS011;75718;50.886;11.656;2024-01-30T13:14:36;5.65;;;3.60;;
85314;SDS011;75718;50.886;11.656;2024-01-30T13:17:01;6.80;;;3.83;;
85314;SDS011;75718;50.886;11.656;2024-01-30T13:19:27;5.00;;;3.55;;
85314;SDS011;75718;50.886;11.656;2024-01-30T13:21:52;8.90;;;4.33;;
85314;SDS011;75718;50.886;11.656;2024-01-30T13:24:17;5.80;;;4.00;;
85314;SDS011;75718;50.886;11.656;2024-01-30T13:26:46;6.75;;;4.20;;
85314;SDS011;75718;50.886;11.656;2024-01-30T13:29:11;6.07;;;3.92;;
85314;SDS011;75718;50.886;11.656;2024-01-30T13:31:36;4.67;;;3.57;;
85314;SDS011;75718;50.886;11.656;2024-01-30T13:34:02;5.37;;;3.93;;
85314;SDS011;75718;50.886;11.656;2024-01-30T13:36:27;5.25;;;3.80;;
85314;SDS011;75718;50.886;11.656;2024-01-30T13:38:53;6.20;;;4.05;;
85314;SDS011;75718;50.886;11.656;2024-01-30T13:41:18;6.37;;;4.17;;
85314;SDS011;75718;50.886;11.656;2024-01-30T13:43:43;5.43;;;4.33;;
85314;SDS011;75718;50.886;11.656;2024-01-30T13:46:09;5.90;;;3.58;;
85314;SDS011;75718;50.886;11.656;2024-01-30T13:48:35;5.15;;;3.10;;
85314;SDS011;75718;50.886;11.656;2024-01-30T13:51:00;6.95;;;3.95;;
85314;SDS011;75718;50.886;11.656;2024-01-30T13:53:25;7.00;;;3.87;;
85314;SDS011;75718;50.886;11.656;2024-01-30T13:55:51;4.73;;;3.67;;
85314;SDS011;75718;50.886;11.656;2024-01-30T13:58:16;7.47;;;3.72;;
85314;SDS011;75718;50.886;11.656;2024-01-30T14:00:41;7.10;;;4.03;;
85314;SDS011;75718;50.886;11.656;2024-01-30T14:03:07;7.03;;;4.90;;
85314;SDS011;75718;50.886;11.656;2024-01-30T14:05:32;4.97;;;3.47;;
85314;SDS011;75718;50.886;11.656;2024-01-30T14:07:57;6.17;;;3.17;;
85314;SDS011;75718;50.886;11.656;2024-01-30T14:10:24;5.75;;;3.85;;
85314;SDS011;75718;50.886;11.656;2024-01-30T14:12:50;4.78;;;3.35;;
85314;SDS011;75718;50.886;11.656;2024-01-30T14:15:15;5.27;;;4.13;;
85314;SDS011;75718;50.886;11.656;2024-01-30T14:17:43;5.75;;;3.60;;
85314;SDS011;75718;50.886;11.656;2024-01-30T14:20:10;6.78;;;3.83;;
85314;SDS011;75718;50.886;11.656;2024-01-30T14:22:35;5.43;;;4.07;;
85314;SDS011;75718;50.886;11.656;2024-01-30T14:25:01;5.85;;;4.00;;
85314;SDS011;75718;50.886;11.656;2024-01-30T14:27:28;7.22;;;3.83;;
85314;SDS011;75718;50.886;11.656;2024-01-30T14:29:54;5.18;;;3.88;;